Time;durP1;ratioP1;P1;durP2;ratioP2;P2;SDS_P1;SDS_P2;PMS_P1;PMS_P2;Temp;Humidity;BMP_temperature;BMP_pressure;BME280_temperature;BME280_humidity;BME280_pressure;Samples;Min_cycle;Max_cycle;Signal;HPM_P1;HPM_P2
2022/05/28 00:01:33;;;;;;;;;;;16.20;99.90;;;;;;5074033;28;20369;-76
2022/05/28 00:04:04;;;;;;;;;;;16.30;99.90;;;;;;5074141;28;19941;-75
2022/05/28 00:06:32;;;;;;;;;;;16.40;99.90;;;;;;5074342;28;19991;-75
2022/05/28 00:08:59;;;;;;;;;;;16.40;99.90;;;;;;5074144;28;19908;-75
2022/05/28 00:11:27;;;;;;;;;;;16.40;99.90;;;;;;5074154;28;20274;-75
2022/05/28 00:13:54;;;;;;;;;;;16.40;99.90;;;;;;5073890;28;20306;-74
2022/05/28 00:16:21;;;;;;;;;;;16.50;99.90;;;;;;5073816;28;19912;-75
2022/05/28 00:18:52;;;;;;;;;;;16.60;99.90;;;;;;5074034;28;20067;-75
2022/05/28 00:21:19;;;;;;;;;;;16.60;99.90;;;;;;5074104;28;19908;-75
2022/05/28 00:23:46;;;;;;;;;;;16.70;99.90;;;;;;5073691;28;19961;-76
2022/05/28 00:26:13;;;;;;;;;;;16.70;99.90;;;;;;5073795;28;19909;-75
2022/05/28 00:28:39;;;;;;;;;;;16.80;99.90;;;;;;5073927;28;19915;-74
2022/05/28 00:31:06;;;;;;;;;;;16.80;99.90;;;;;;5073710;28;20375;-74
2022/05/28 00:33:33;;;;;;;;;;;16.80;99.90;;;;;;5073487;28;19923;-75
2022/05/28 00:36:00;;;;;;;;;;;16.80;99.90;;;;;;5073694;28;19970;-75
2022/05/28 00:38:28;;;;;;;;;;;16.80;99.90;;;;;;5073716;28;19934;-77
2022/05/28 00:40:56;;;;;;;;;;;16.80;99.90;;;;;;5073123;28;19935;-79
2022/05/28 00:43:23;;;;;;;;;;;16.80;99.90;;;;;;5073606;28;19912;-79
2022/05/28 00:45:51;;;;;;;;;;;16.90;99.90;;;;;;5073260;28;19912;-76
2022/05/28 00:48:20;;;;;;;;;;;16.90;99.90;;;;;;5073435;28;19952;-76
2022/05/28 00:50:47;;;;;;;;;;;16.90;99.90;;;;;;5073200;28;19909;-76
2022/05/28 00:53:13;;;;;;;;;;;17.00;99.90;;;;;;5072884;28;19924;-76
2022/05/28 00:55:40;;;;;;;;;;;17.10;99.90;;;;;;5073096;28;19999;-75
2022/05/28 00:58:08;;;;;;;;;;;17.20;99.90;;;;;;5073086;28;20436;-76
2022/05/28 01:00:35;;;;;;;;;;;17.30;99.90;;;;;;5072679;28;19908;-75
2022/05/28 01:03:05;;;;;;;;;;;17.50;99.90;;;;;;5072533;28;19909;-74
2022/05/28 01:05:49;;;;;;;;;;;17.70;99.90;;;;;;5105485;28;19909;-75
2022/05/28 01:08:30;;;;;;;;;;;17.90;99.90;;;;;;5073095;28;20007;-78
2022/05/28 01:11:02;;;;;;;;;;;18.10;99.90;;;;;;5073062;28;19999;-77
2022/05/28 01:13:35;;;;;;;;;;;18.20;99.90;;;;;;5072908;28;19916;-76
2022/05/28 01:16:10;;;;;;;;;;;18.30;99.90;;;;;;5072808;28;19936;-76
2022/05/28 01:18:51;;;;;;;;;;;18.40;99.90;;;;;;5105321;28;20352;-76
2022/05/28 01:21:25;;;;;;;;;;;18.60;99.90;;;;;;5104706;28;20374;-78
2022/05/28 01:23:54;;;;;;;;;;;18.50;99.90;;;;;;5114095;28;19947;-78
2022/05/28 01:26:26;;;;;;;;;;;18.40;99.90;;;;;;5114210;28;19908;-78
2022/05/28 01:29:06;;;;;;;;;;;18.30;99.90;;;;;;5113974;28;20002;-78
2022/05/28 01:31:33;;;;;;;;;;;18.30;99.90;;;;;;5113593;28;19947;-78
2022/05/28 01:34:01;;;;;;;;;;;18.40;99.90;;;;;;5114022;28;19922;-77
2022/05/28 01:36:29;;;;;;;;;;;18.30;99.90;;;;;;5113874;28;19908;-78
2022/05/28 01:38:57;;;;;;;;;;;18.30;99.90;;;;;;5113992;28;19908;-79
2022/05/28 01:41:24;;;;;;;;;;;18.40;99.90;;;;;;5113855;28;19926;-78
2022/05/28 01:43:52;;;;;;;;;;;18.30;99.90;;;;;;5113731;28;20007;-77
2022/05/28 01:46:20;;;;;;;;;;;18.30;99.90;;;;;;5113833;28;19915;-78
2022/05/28 01:48:49;;;;;;;;;;;18.20;99.90;;;;;;5113904;28;19970;-76
2022/05/28 01:51:17;;;;;;;;;;;18.20;99.90;;;;;;5113549;28;19908;-75
2022/05/28 01:56:29;;;;;;;;;;;18.30;99.90;;;;;;5114134;28;19915;-77
2022/05/28 01:58:56;;;;;;;;;;;18.20;99.90;;;;;;5113745;28;19911;-76
2022/05/28 02:01:23;;;;;;;;;;;18.20;99.90;;;;;;5113532;28;19908;-77
2022/05/28 02:03:51;;;;;;;;;;;18.20;99.90;;;;;;5113347;28;19908;-76
2022/05/28 02:06:19;;;;;;;;;;;18.30;99.90;;;;;;5113768;28;19908;-78
2022/05/28 02:08:46;;;;;;;;;;;18.30;99.90;;;;;;5113811;28;19911;-78
2022/05/28 02:11:21;;;;;;;;;;;18.30;99.90;;;;;;5113594;28;20493;-75
2022/05/28 02:13:47;;;;;;;;;;;18.40;99.90;;;;;;5114618;28;19960;-77
2022/05/28 02:16:17;;;;;;;;;;;18.50;99.90;;;;;;5117803;28;19908;-76
2022/05/28 02:18:56;;;;;;;;;;;18.60;99.90;;;;;;5117516;28;19912;-78
2022/05/28 02:21:22;;;;;;;;;;;18.60;99.90;;;;;;5117775;28;19908;-79
2022/05/28 02:24:07;;;;;;;;;;;18.60;99.90;;;;;;5117402;28;20278;-78
2022/05/28 02:26:41;;;;;;;;;;;18.70;99.90;;;;;;5117644;28;20003;-76
2022/05/28 02:29:08;;;;;;;;;;;18.70;99.90;;;;;;5117470;28;20373;-77
2022/05/28 02:31:35;;;;;;;;;;;18.70;99.90;;;;;;5116729;28;20028;-77
2022/05/28 02:34:03;;;;;;;;;;;18.70;99.90;;;;;;5117096;28;20007;-76
2022/05/28 02:36:30;;;;;;;;;;;18.80;99.90;;;;;;5117350;28;20255;-78
2022/05/28 02:38:57;;;;;;;;;;;18.80;99.90;;;;;;5117317;28;19908;-77
2022/05/28 02:41:24;;;;;;;;;;;18.80;99.90;;;;;;5117212;28;19911;-78
2022/05/28 02:43:52;;;;;;;;;;;18.80;99.90;;;;;;5116924;28;19908;-76
2022/05/28 02:46:19;;;;;;;;;;;18.80;99.90;;;;;;5116933;28;19929;-76
2022/05/28 02:48:46;;;;;;;;;;;18.80;99.90;;;;;;5117157;28;19907;-77
2022/05/28 02:51:15;;;;;;;;;;;18.80;99.90;;;;;;5116752;28;19908;-77
2022/05/28 02:53:41;;;;;;;;;;;18.80;99.90;;;;;;5115397;28;19915;-78
2022/05/28 02:56:09;;;;;;;;;;;18.70;99.90;;;;;;5116814;28;20017;-77
2022/05/28 02:58:35;;;;;;;;;;;18.80;99.90;;;;;;5116777;28;19915;-78
2022/05/28 03:01:03;;;;;;;;;;;18.90;99.90;;;;;;5116593;28;20250;-78
2022/05/28 03:03:30;;;;;;;;;;;18.90;99.90;;;;;;5116675;28;19907;-78
2022/05/28 03:05:57;;;;;;;;;;;18.80;99.90;;;;;;5116484;28;19911;-78
2022/05/28 03:08:23;;;;;;;;;;;18.80;99.90;;;;;;5116677;28;20378;-75
2022/05/28 03:10:50;;;;;;;;;;;18.70;99.90;;;;;;5116456;28;19908;-78
2022/05/28 03:13:17;;;;;;;;;;;18.70;99.90;;;;;;5116566;28;19916;-77
2022/05/28 03:15:43;;;;;;;;;;;18.70;99.90;;;;;;5116356;28;20270;-76
2022/05/28 03:18:10;;;;;;;;;;;18.80;99.90;;;;;;5116419;28;19907;-76
2022/05/28 03:20:38;;;;;;;;;;;18.70;99.90;;;;;;5116439;28;19908;-79
2022/05/28 03:23:05;;;;;;;;;;;18.70;99.90;;;;;;5116477;28;20044;-76
2022/05/28 03:25:32;;;;;;;;;;;18.70;99.90;;;;;;5115699;27;19955;-77
2022/05/28 03:27:58;;;;;;;;;;;18.70;99.90;;;;;;5116425;28;19908;-78
2022/05/28 03:30:25;;;;;;;;;;;18.70;99.90;;;;;;5116198;28;19915;-76
2022/05/28 03:32:52;;;;;;;;;;;18.70;99.90;;;;;;5116295;28;19923;-78
2022/05/28 03:35:18;;;;;;;;;;;18.80;99.90;;;;;;5116450;28;19908;-78
2022/05/28 03:37:45;;;;;;;;;;;18.80;99.90;;;;;;5116053;28;20346;-78
2022/05/28 03:40:12;;;;;;;;;;;18.80;99.90;;;;;;5116098;28;19918;-78
2022/05/28 03:42:38;;;;;;;;;;;18.70;99.90;;;;;;5116078;28;20270;-79
2022/05/28 03:45:05;;;;;;;;;;;18.80;99.90;;;;;;5116100;28;19908;-78
2022/05/28 03:47:32;;;;;;;;;;;18.90;99.90;;;;;;5115915;28;20346;-78
2022/05/28 03:49:59;;;;;;;;;;;18.90;99.90;;;;;;5115793;28;19914;-78
2022/05/28 03:52:26;;;;;;;;;;;18.90;99.90;;;;;;5115647;28;19926;-78
2022/05/28 03:54:52;;;;;;;;;;;18.90;99.90;;;;;;5115899;28;19907;-79
2022/05/28 03:57:26;;;;;;;;;;;18.80;99.90;;;;;;5115830;28;20312;-78
2022/05/28 03:59:53;;;;;;;;;;;18.80;99.90;;;;;;5115587;28;19919;-77
2022/05/28 04:02:20;;;;;;;;;;;18.70;99.90;;;;;;5115757;28;19912;-78
2022/05/28 04:04:47;;;;;;;;;;;18.70;99.90;;;;;;5115743;28;19998;-78
2022/05/28 04:07:14;;;;;;;;;;;18.60;99.90;;;;;;5115639;28;19942;-78
2022/05/28 04:09:40;;;;;;;;;;;18.70;99.90;;;;;;5115632;28;19939;-78
2022/05/28 04:12:07;;;;;;;;;;;18.70;99.90;;;;;;5115655;28;19919;-77
2022/05/28 04:14:34;;;;;;;;;;;18.70;99.90;;;;;;5115402;28;19911;-79
2022/05/28 04:17:01;;;;;;;;;;;18.70;99.90;;;;;;5115475;28;19908;-79
2022/05/28 04:19:27;;;;;;;;;;;18.80;99.90;;;;;;5115234;28;19996;-76
2022/05/28 04:21:54;;;;;;;;;;;18.80;99.90;;;;;;5113734;28;20283;-76
2022/05/28 04:24:20;;;;;;;;;;;18.80;99.90;;;;;;5115351;28;19912;-76
2022/05/28 04:26:47;;;;;;;;;;;18.70;99.90;;;;;;5115187;28;19947;-77
2022/05/28 04:29:14;;;;;;;;;;;18.80;99.90;;;;;;5114788;28;19918;-76
2022/05/28 04:31:41;;;;;;;;;;;18.70;99.90;;;;;;5114722;28;19962;-76
2022/05/28 04:34:07;;;;;;;;;;;18.70;99.90;;;;;;5115035;28;19908;-76
2022/05/28 04:36:34;;;;;;;;;;;18.70;99.90;;;;;;5114135;28;19918;-77
2022/05/28 04:39:01;;;;;;;;;;;18.70;99.90;;;;;;5114744;28;20342;-78
2022/05/28 04:41:27;;;;;;;;;;;18.80;99.90;;;;;;5114747;28;19998;-75
2022/05/28 04:43:54;;;;;;;;;;;18.80;99.90;;;;;;5114558;28;19933;-78
2022/05/28 04:46:21;;;;;;;;;;;18.70;99.90;;;;;;5114752;28;19919;-76
2022/05/28 04:48:47;;;;;;;;;;;18.70;99.90;;;;;;5114961;28;19912;-77
2022/05/28 04:51:14;;;;;;;;;;;18.70;99.90;;;;;;5114544;28;19990;-78
2022/05/28 04:53:41;;;;;;;;;;;18.80;99.90;;;;;;5114252;28;19915;-78
2022/05/28 04:56:07;;;;;;;;;;;18.80;99.90;;;;;;5114587;28;19914;-75
2022/05/28 04:58:34;;;;;;;;;;;18.90;99.90;;;;;;5114428;28;19991;-78
2022/05/28 05:01:01;;;;;;;;;;;18.90;99.90;;;;;;5114466;28;20214;-77
2022/05/28 05:03:27;;;;;;;;;;;18.90;99.90;;;;;;5114415;28;19908;-78
2022/05/28 05:05:54;;;;;;;;;;;18.80;99.90;;;;;;5114235;28;19912;-78
2022/05/28 05:08:20;;;;;;;;;;;18.80;99.90;;;;;;5114407;28;19919;-78
2022/05/28 05:10:48;;;;;;;;;;;18.80;99.90;;;;;;5110883;28;19908;-78
2022/05/28 05:13:15;;;;;;;;;;;18.80;99.90;;;;;;5083781;28;19923;-77
2022/05/28 05:15:41;;;;;;;;;;;18.70;99.90;;;;;;5081469;28;19928;-77
2022/05/28 05:18:08;;;;;;;;;;;18.70;99.90;;;;;;5101583;28;20007;-76
2022/05/28 05:20:35;;;;;;;;;;;18.70;99.90;;;;;;5092545;28;20416;-79
2022/05/28 05:23:01;;;;;;;;;;;18.70;99.90;;;;;;5093222;28;20278;-78
2022/05/28 05:25:28;;;;;;;;;;;18.80;99.90;;;;;;5098413;28;20292;-77
2022/05/28 05:27:55;;;;;;;;;;;18.80;99.90;;;;;;5112854;28;19907;-77
2022/05/28 05:30:21;;;;;;;;;;;18.80;99.90;;;;;;5098336;28;19912;-75
2022/05/28 05:32:48;;;;;;;;;;;18.70;99.90;;;;;;5092449;28;19927;-78
2022/05/28 05:35:15;;;;;;;;;;;18.60;99.90;;;;;;5092477;28;20525;-78
2022/05/28 05:37:41;;;;;;;;;;;18.70;99.90;;;;;;5091940;28;19947;-78
2022/05/28 05:40:08;;;;;;;;;;;18.80;99.90;;;;;;5089274;28;19940;-79
2022/05/28 05:42:35;;;;;;;;;;;18.70;99.90;;;;;;5089145;28;19908;-78
2022/05/28 05:45:02;;;;;;;;;;;18.80;99.90;;;;;;5090327;28;19986;-78
2022/05/28 05:47:29;;;;;;;;;;;18.80;99.90;;;;;;5089129;28;19908;-75
2022/05/28 05:49:56;;;;;;;;;;;18.80;99.90;;;;;;5108048;28;19908;-77
2022/05/28 05:52:23;;;;;;;;;;;18.70;99.90;;;;;;5111132;28;19923;-75
2022/05/28 05:54:49;;;;;;;;;;;18.80;99.90;;;;;;5113111;28;19908;-76
2022/05/28 05:57:16;;;;;;;;;;;18.70;99.90;;;;;;5113720;28;19914;-78
2022/05/28 05:59:42;;;;;;;;;;;18.80;99.90;;;;;;5113184;28;20004;-76
2022/05/28 06:02:10;;;;;;;;;;;18.70;99.90;;;;;;5113717;28;19916;-78
2022/05/28 06:04:37;;;;;;;;;;;18.60;99.90;;;;;;5113537;28;19949;-78
2022/05/28 06:07:08;;;;;;;;;;;18.50;99.90;;;;;;5113420;28;20320;-75
2022/05/28 06:09:35;;;;;;;;;;;18.50;99.90;;;;;;5112834;28;19936;-76
2022/05/28 06:12:02;;;;;;;;;;;18.50;99.90;;;;;;5113358;28;19956;-76
2022/05/28 06:14:28;;;;;;;;;;;18.50;99.90;;;;;;5112001;28;19947;-78
2022/05/28 06:16:55;;;;;;;;;;;18.40;99.90;;;;;;5113521;28;19907;-77
2022/05/28 06:19:21;;;;;;;;;;;18.30;99.90;;;;;;5113486;28;19908;-76
2022/05/28 06:21:51;;;;;;;;;;;18.30;99.90;;;;;;5113224;28;19908;-76
2022/05/28 06:24:18;;;;;;;;;;;18.20;99.90;;;;;;5113412;28;19915;-75
2022/05/28 06:26:44;;;;;;;;;;;18.20;99.90;;;;;;5113279;28;19923;-78
2022/05/28 06:29:11;;;;;;;;;;;18.20;99.90;;;;;;5113235;28;19974;-78
2022/05/28 06:31:38;;;;;;;;;;;18.20;99.90;;;;;;5113129;28;19915;-78
2022/05/28 06:34:04;;;;;;;;;;;18.20;99.90;;;;;;5113368;28;19908;-76
2022/05/28 06:36:31;;;;;;;;;;;18.20;99.90;;;;;;5113350;28;19912;-78
2022/05/28 06:38:58;;;;;;;;;;;18.20;99.90;;;;;;5113283;28;19930;-77
2022/05/28 06:41:25;;;;;;;;;;;18.20;99.90;;;;;;5113356;28;19908;-77
2022/05/28 06:43:52;;;;;;;;;;;18.10;99.90;;;;;;5111734;28;20267;-73
2022/05/28 06:46:18;;;;;;;;;;;18.00;99.90;;;;;;5113442;28;20362;-78
2022/05/28 06:48:45;;;;;;;;;;;17.90;99.90;;;;;;5113454;28;20002;-78
2022/05/28 06:51:12;;;;;;;;;;;17.90;99.90;;;;;;5111451;28;19911;-79
2022/05/28 06:53:40;;;;;;;;;;;18.00;99.90;;;;;;5112897;28;19980;-78
2022/05/28 06:56:08;;;;;;;;;;;18.00;99.90;;;;;;5113177;28;19908;-76
2022/05/28 06:58:34;;;;;;;;;;;18.10;99.90;;;;;;5113080;28;19908;-78
2022/05/28 07:01:02;;;;;;;;;;;18.10;99.90;;;;;;5116364;28;19994;-79
2022/05/28 07:03:29;;;;;;;;;;;18.00;99.90;;;;;;5117004;28;19907;-78
2022/05/28 07:05:56;;;;;;;;;;;17.90;99.90;;;;;;5116915;28;19908;-78
2022/05/28 07:08:24;;;;;;;;;;;17.80;99.90;;;;;;5116726;28;19908;-78
2022/05/28 07:10:52;;;;;;;;;;;17.70;99.90;;;;;;5116860;28;20002;-78
2022/05/28 07:13:19;;;;;;;;;;;17.70;99.90;;;;;;5116657;28;20317;-78
2022/05/28 07:15:46;;;;;;;;;;;17.50;99.90;;;;;;5116539;28;19953;-77
2022/05/28 07:18:13;;;;;;;;;;;17.50;99.90;;;;;;5112670;28;19908;-76
2022/05/28 07:20:40;;;;;;;;;;;17.50;99.90;;;;;;5076271;28;19915;-76
2022/05/28 07:23:13;;;;;;;;;;;17.30;99.90;;;;;;5075929;28;19908;-78
2022/05/28 07:25:40;;;;;;;;;;;17.30;99.90;;;;;;5075586;28;19915;-77
2022/05/28 07:28:25;;;;;;;;;;;17.20;99.90;;;;;;5075049;28;19927;-76
2022/05/28 07:30:52;;;;;;;;;;;17.10;99.90;;;;;;5076535;28;19909;-77
2022/05/28 07:33:19;;;;;;;;;;;17.00;99.90;;;;;;5095760;28;19924;-75
2022/05/28 07:35:46;;;;;;;;;;;17.00;99.90;;;;;;5095547;28;20006;-73
2022/05/28 07:38:12;;;;;;;;;;;17.00;99.90;;;;;;5095561;28;19915;-73
2022/05/28 07:40:39;;;;;;;;;;;17.00;99.90;;;;;;5095622;28;19949;-73
2022/05/28 07:43:06;;;;;;;;;;;17.10;99.90;;;;;;5095716;28;19908;-74
2022/05/28 07:45:35;;;;;;;;;;;17.10;99.90;;;;;;5095398;28;19909;-75
2022/05/28 07:48:02;;;;;;;;;;;17.10;99.90;;;;;;5094117;28;19977;-75
2022/05/28 07:50:29;;;;;;;;;;;17.10;99.90;;;;;;5093386;28;19912;-75
2022/05/28 07:52:57;;;;;;;;;;;17.00;99.90;;;;;;5092928;28;20609;-74
2022/05/28 07:55:24;;;;;;;;;;;16.90;99.90;;;;;;5093339;28;19965;-75
2022/05/28 07:57:50;;;;;;;;;;;16.90;99.90;;;;;;5093077;28;20244;-75
2022/05/28 08:00:17;;;;;;;;;;;16.90;99.90;;;;;;5093113;28;19965;-74
2022/05/28 08:02:44;;;;;;;;;;;16.80;99.90;;;;;;5092551;28;19922;-75
2022/05/28 08:05:10;;;;;;;;;;;16.80;99.90;;;;;;5093136;28;20433;-76
2022/05/28 08:07:37;;;;;;;;;;;16.90;99.90;;;;;;5092979;28;19950;-76
2022/05/28 08:10:04;;;;;;;;;;;16.90;99.90;;;;;;5093139;28;20412;-74
2022/05/28 08:12:31;;;;;;;;;;;16.90;99.90;;;;;;5092807;28;19916;-75
2022/05/28 08:14:58;;;;;;;;;;;16.80;99.90;;;;;;5092313;28;19999;-77
2022/05/28 08:17:25;;;;;;;;;;;16.90;99.90;;;;;;5092561;28;19915;-75
2022/05/28 08:19:52;;;;;;;;;;;16.90;99.90;;;;;;5092532;28;20066;-74
2022/05/28 08:25:03;;;;;;;;;;;16.90;99.90;;;;;;5093048;28;19968;-75
2022/05/28 08:27:30;;;;;;;;;;;16.90;99.90;;;;;;5092241;28;19920;-77
2022/05/28 08:29:56;;;;;;;;;;;16.90;99.90;;;;;;5092649;28;19912;-77
2022/05/28 08:32:23;;;;;;;;;;;17.00;99.90;;;;;;5092730;28;20494;-77
2022/05/28 08:34:50;;;;;;;;;;;16.90;99.90;;;;;;5092773;28;19915;-77
2022/05/28 08:37:16;;;;;;;;;;;16.90;99.90;;;;;;5092705;28;19915;-77
2022/05/28 08:39:43;;;;;;;;;;;16.80;99.90;;;;;;5092325;28;19908;-74
2022/05/28 08:42:11;;;;;;;;;;;16.80;99.90;;;;;;5092142;28;20389;-76
2022/05/28 08:44:42;;;;;;;;;;;16.80;99.90;;;;;;5092445;28;20366;-76
2022/05/28 08:47:08;;;;;;;;;;;16.80;99.90;;;;;;5092307;28;19997;-77
2022/05/28 08:49:37;;;;;;;;;;;16.70;99.90;;;;;;5092418;28;19909;-78
2022/05/28 08:52:05;;;;;;;;;;;16.70;99.90;;;;;;5092255;28;19924;-77
2022/05/28 08:55:03;;;;;;;;;;;16.70;99.90;;;;;;5092016;28;19915;-77
2022/05/28 08:57:35;;;;;;;;;;;16.70;99.90;;;;;;5092542;28;20584;-77
2022/05/28 09:00:08;;;;;;;;;;;16.70;99.90;;;;;;5092303;28;19908;-77
2022/05/28 09:02:36;;;;;;;;;;;16.70;99.90;;;;;;5092121;28;19909;-77
2022/05/28 09:05:04;;;;;;;;;;;16.70;99.90;;;;;;5091899;28;19916;-78
2022/05/28 09:07:32;;;;;;;;;;;16.60;99.90;;;;;;5094109;28;19908;-76
2022/05/28 09:09:59;;;;;;;;;;;16.60;99.90;;;;;;5094269;28;19966;-77
2022/05/28 09:12:25;;;;;;;;;;;16.60;99.90;;;;;;5094036;28;19916;-76
2022/05/28 09:14:52;;;;;;;;;;;16.50;99.90;;;;;;5093841;28;20264;-77
2022/05/28 09:17:24;;;;;;;;;;;16.50;99.90;;;;;;5094018;28;19908;-78
2022/05/28 09:19:52;;;;;;;;;;;16.40;99.90;;;;;;5093774;28;19908;-77
2022/05/28 09:22:19;;;;;;;;;;;16.40;99.90;;;;;;5093582;28;19912;-77
2022/05/28 09:24:46;;;;;;;;;;;16.40;99.90;;;;;;5094085;28;19908;-76
2022/05/28 09:27:25;;;;;;;;;;;16.30;99.90;;;;;;5093996;28;19939;-77
2022/05/28 09:30:07;;;;;;;;;;;16.30;99.90;;;;;;5093675;28;20359;-77
2022/05/28 09:32:33;;;;;;;;;;;16.30;99.90;;;;;;5093729;28;20023;-78
2022/05/28 09:35:09;;;;;;;;;;;16.30;99.90;;;;;;5093721;28;19995;-77
2022/05/28 09:37:42;;;;;;;;;;;16.30;99.90;;;;;;5093404;28;19912;-75
2022/05/28 09:40:38;;;;;;;;;;;16.30;99.90;;;;;;5093478;28;20027;-74
2022/05/28 09:43:24;;;;;;;;;;;16.20;99.90;;;;;;5088676;28;19995;-74
2022/05/28 09:46:17;;;;;;;;;;;16.20;99.90;;;;;;5093257;28;19940;-74
2022/05/28 09:48:46;;;;;;;;;;;16.20;99.90;;;;;;5084540;28;19912;-74
2022/05/28 09:51:23;;;;;;;;;;;16.20;99.90;;;;;;5093358;28;19908;-74
2022/05/28 09:56:42;;;;;;;;;;;16.20;99.90;;;;;;5093820;28;20370;-74
2022/05/28 09:59:40;;;;;;;;;;;16.20;99.90;;;;;;5093224;28;19945;-74
2022/05/28 10:02:08;;;;;;;;;;;16.20;99.90;;;;;;5081107;28;19908;-74
2022/05/28 10:05:03;;;;;;;;;;;16.10;99.90;;;;;;5093299;28;19947;-74
2022/05/28 10:07:32;;;;;;;;;;;16.10;99.90;;;;;;5088081;28;20266;-74
2022/05/28 10:09:59;;;;;;;;;;;16.10;99.90;;;;;;5093189;28;19908;-74
2022/05/28 10:12:27;;;;;;;;;;;16.00;99.90;;;;;;5093008;28;19923;-73
2022/05/28 10:15:03;;;;;;;;;;;16.00;99.90;;;;;;5093188;28;19912;-73
2022/05/28 10:17:30;;;;;;;;;;;15.90;99.90;;;;;;5093226;28;20351;-74
2022/05/28 10:19:57;;;;;;;;;;;15.90;99.90;;;;;;5093236;28;19915;-74
2022/05/28 10:22:25;;;;;;;;;;;15.80;99.90;;;;;;5093220;28;19973;-74
2022/05/28 10:24:54;;;;;;;;;;;15.80;99.90;;;;;;5093240;28;20252;-73
2022/05/28 10:27:41;;;;;;;;;;;15.70;99.90;;;;;;5092966;28;19908;-74
2022/05/28 10:30:20;;;;;;;;;;;15.70;99.90;;;;;;5088831;28;20393;-76
2022/05/28 10:32:49;;;;;;;;;;;15.70;99.90;;;;;;5092956;28;20377;-76
2022/05/28 10:35:20;;;;;;;;;;;15.60;99.90;;;;;;5095040;28;19908;-76
2022/05/28 10:37:47;;;;;;;;;;;15.60;99.90;;;;;;5097415;28;19922;-76
2022/05/28 10:40:17;;;;;;;;;;;15.60;99.90;;;;;;5096904;28;19919;-74
2022/05/28 10:42:43;;;;;;;;;;;15.50;99.90;;;;;;5096700;28;19912;-75
2022/05/28 10:45:11;;;;;;;;;;;15.50;99.90;;;;;;5096708;28;19908;-75
2022/05/28 10:47:37;;;;;;;;;;;15.50;99.90;;;;;;5096743;28;19961;-77
2022/05/28 10:50:20;;;;;;;;;;;15.50;99.90;;;;;;5096665;28;19918;-76
2022/05/28 10:52:47;;;;;;;;;;;15.50;99.90;;;;;;5096399;28;20429;-76
2022/05/28 10:55:19;;;;;;;;;;;15.40;99.90;;;;;;5096601;28;19912;-75
2022/05/28 10:58:01;;;;;;;;;;;15.40;99.90;;;;;;5096366;28;19908;-76
2022/05/28 11:00:39;;;;;;;;;;;15.40;99.90;;;;;;5096394;28;19908;-74
2022/05/28 11:03:15;;;;;;;;;;;15.30;99.90;;;;;;5096528;28;19954;-75
2022/05/28 11:06:02;;;;;;;;;;;15.30;99.90;;;;;;5096403;28;19912;-77
2022/05/28 11:08:41;;;;;;;;;;;15.30;99.90;;;;;;5096785;28;20409;-78
2022/05/28 11:11:12;;;;;;;;;;;15.30;99.90;;;;;;5100302;28;19893;-78
2022/05/28 11:13:57;;;;;;;;;;;15.30;99.90;;;;;;5095956;28;20264;-78
2022/05/28 11:16:38;;;;;;;;;;;15.30;99.90;;;;;;5096216;28;19912;-78
2022/05/28 11:19:19;;;;;;;;;;;15.30;99.90;;;;;;5096520;28;19919;-77
2022/05/28 11:21:46;;;;;;;;;;;15.20;99.90;;;;;;5095991;28;20412;-74
2022/05/28 11:24:31;;;;;;;;;;;15.20;99.90;;;;;;5096263;28;20310;-76
2022/05/28 11:27:08;;;;;;;;;;;15.10;99.90;;;;;;5096181;28;19913;-78
2022/05/28 11:29:41;;;;;;;;;;;15.00;99.90;;;;;;5095947;28;19915;-77
2022/05/28 11:32:14;;;;;;;;;;;15.00;99.90;;;;;;5096129;28;20358;-78
2022/05/28 11:34:48;;;;;;;;;;;15.00;99.90;;;;;;5096123;28;19912;-77
2022/05/28 11:37:22;;;;;;;;;;;15.00;99.90;;;;;;5095976;28;20278;-77
2022/05/28 11:39:57;;;;;;;;;;;15.00;99.90;;;;;;5095775;28;19954;-77
2022/05/28 11:42:31;;;;;;;;;;;15.00;99.90;;;;;;5095572;28;19915;-77
2022/05/28 11:44:59;;;;;;;;;;;14.90;99.90;;;;;;5095499;28;19908;-77
2022/05/28 11:47:44;;;;;;;;;;;15.00;99.90;;;;;;5095702;28;20416;-77
2022/05/28 11:53:19;;;;;;;;;;;14.90;99.90;;;;;;5095528;28;19927;-75
2022/05/28 11:55:46;;;;;;;;;;;14.90;99.90;;;;;;5095315;28;19933;-77
2022/05/28 11:58:21;;;;;;;;;;;14.90;99.90;;;;;;5095458;28;19915;-77
2022/05/28 12:01:11;;;;;;;;;;;15.00;99.90;;;;;;5095818;28;19908;-78
2022/05/28 12:03:38;;;;;;;;;;;15.00;99.90;;;;;;5092159;28;19908;-77
2022/05/28 12:06:13;;;;;;;;;;;15.00;99.90;;;;;;5095436;28;19974;-77
2022/05/28 12:08:48;;;;;;;;;;;14.90;99.90;;;;;;5095324;28;19918;-78
2022/05/28 12:11:21;;;;;;;;;;;15.00;99.90;;;;;;5095272;28;20373;-77
2022/05/28 12:13:50;;;;;;;;;;;14.90;99.90;;;;;;5094908;28;19922;-77
2022/05/28 12:16:23;;;;;;;;;;;14.90;99.90;;;;;;5095343;28;19908;-77
2022/05/28 12:18:55;;;;;;;;;;;14.90;99.90;;;;;;5095239;28;19914;-77
2022/05/28 12:21:29;;;;;;;;;;;14.80;99.90;;;;;;5095038;28;19915;-75
2022/05/28 12:24:15;;;;;;;;;;;14.80;99.90;;;;;;5095079;28;20309;-74
2022/05/28 12:29:38;;;;;;;;;;;14.80;99.90;;;;;;5095011;28;19915;-74
2022/05/28 12:32:22;;;;;;;;;;;14.80;99.90;;;;;;5094852;28;19911;-74
2022/05/28 12:35:02;;;;;;;;;;;14.80;99.90;;;;;;5094802;28;19915;-74
2022/05/28 12:37:39;;;;;;;;;;;14.70;99.90;;;;;;5094782;28;19958;-74
2022/05/28 12:40:13;;;;;;;;;;;14.70;99.90;;;;;;5094691;28;19908;-74
2022/05/28 12:42:40;;;;;;;;;;;14.70;99.90;;;;;;5094488;28;20327;-74
2022/05/28 12:45:30;;;;;;;;;;;14.80;99.90;;;;;;5094584;28;19909;-74
2022/05/28 12:48:06;;;;;;;;;;;14.80;99.90;;;;;;5091264;28;19908;-74
2022/05/28 12:50:43;;;;;;;;;;;14.70;99.90;;;;;;5094537;28;20351;-74
2022/05/28 12:53:17;;;;;;;;;;;14.70;99.90;;;;;;5094171;28;19959;-74
2022/05/28 12:55:43;;;;;;;;;;;14.60;99.90;;;;;;5094166;28;19912;-74
2022/05/28 12:58:26;;;;;;;;;;;14.60;99.90;;;;;;5093577;28;20329;-74
2022/05/28 13:01:00;;;;;;;;;;;14.50;99.90;;;;;;5094432;28;20393;-74
2022/05/28 13:03:29;;;;;;;;;;;14.50;99.90;;;;;;5094393;28;19908;-75
2022/05/28 13:06:12;;;;;;;;;;;14.50;99.90;;;;;;5094132;28;20278;-74
2022/05/28 13:08:45;;;;;;;;;;;14.50;99.90;;;;;;5094224;28;19908;-74
2022/05/28 13:11:42;;;;;;;;;;;14.50;99.90;;;;;;5094173;28;19908;-74
2022/05/28 13:14:25;;;;;;;;;;;14.50;99.90;;;;;;5089311;28;20019;-74
2022/05/28 13:16:58;;;;;;;;;;;14.50;99.90;;;;;;5094066;28;19908;-74
2022/05/28 13:19:42;;;;;;;;;;;14.50;99.90;;;;;;5093993;28;20286;-74
2022/05/28 13:22:18;;;;;;;;;;;14.50;99.90;;;;;;5093940;28;20375;-74
2022/05/28 13:25:11;;;;;;;;;;;14.40;99.90;;;;;;5075240;28;20461;-75
2022/05/28 13:27:47;;;;;;;;;;;14.40;99.90;;;;;;5073205;28;19909;-74
2022/05/28 13:30:18;;;;;;;;;;;14.30;99.90;;;;;;5073539;28;20399;-75
2022/05/28 13:32:52;;;;;;;;;;;14.20;99.90;;;;;;5073438;28;19923;-74
2022/05/28 13:35:19;;;;;;;;;;;14.20;99.90;;;;;;5073081;28;19908;-77
2022/05/28 13:37:52;;;;;;;;;;;14.20;99.90;;;;;;5073347;28;19932;-75
2022/05/28 13:40:20;;;;;;;;;;;14.20;99.90;;;;;;5073545;28;20267;-74
2022/05/28 13:42:48;;;;;;;;;;;14.10;99.90;;;;;;5073362;28;19916;-74
2022/05/28 13:45:21;;;;;;;;;;;14.20;99.90;;;;;;5072188;28;19910;-74
2022/05/28 13:47:47;;;;;;;;;;;14.20;99.90;;;;;;5073187;28;19908;-74
2022/05/28 13:50:15;;;;;;;;;;;14.10;99.90;;;;;;5072768;28;19912;-74
2022/05/28 13:52:44;;;;;;;;;;;14.10;99.90;;;;;;5073005;28;19947;-75
2022/05/28 13:55:11;;;;;;;;;;;14.00;99.90;;;;;;5073346;28;19913;-74
2022/05/28 13:57:43;;;;;;;;;;;14.00;99.90;;;;;;5072849;28;19970;-76
2022/05/28 14:00:11;;;;;;;;;;;13.90;99.90;;;;;;5073257;28;19916;-74
2022/05/28 14:02:38;;;;;;;;;;;14.00;99.90;;;;;;5073242;28;19908;-75
2022/05/28 14:05:05;;;;;;;;;;;14.00;99.90;;;;;;5072561;28;19909;-74
2022/05/28 14:07:33;;;;;;;;;;;14.00;99.90;;;;;;5073006;28;19908;-76
2022/05/28 14:10:07;;;;;;;;;;;13.90;99.90;;;;;;5076567;28;19908;-76
2022/05/28 14:12:35;;;;;;;;;;;14.00;99.90;;;;;;5077039;28;19920;-74
2022/05/28 14:15:05;;;;;;;;;;;14.00;99.90;;;;;;5077165;28;19914;-75
2022/05/28 14:17:34;;;;;;;;;;;14.00;99.90;;;;;;5076848;28;19970;-75
2022/05/28 14:20:01;;;;;;;;;;;14.00;99.90;;;;;;5076591;28;19954;-74
2022/05/28 14:22:33;;;;;;;;;;;13.90;99.90;;;;;;5077009;28;19909;-75
2022/05/28 14:25:01;;;;;;;;;;;13.90;99.90;;;;;;5077005;28;20283;-75
2022/05/28 14:27:29;;;;;;;;;;;13.90;99.90;;;;;;5076923;28;19908;-75
2022/05/28 14:29:58;;;;;;;;;;;13.90;99.90;;;;;;5076910;28;19909;-74
2022/05/28 14:32:50;;;;;;;;;;;13.80;99.90;;;;;;5076767;28;19939;-74
2022/05/28 14:35:20;;;;;;;;;;;13.80;99.90;;;;;;5075609;28;19909;-74
2022/05/28 14:37:57;;;;;;;;;;;13.80;99.90;;;;;;5076538;28;19964;-74
2022/05/28 14:40:25;;;;;;;;;;;13.80;99.90;;;;;;5076664;28;19919;-75
2022/05/28 14:42:56;;;;;;;;;;;13.80;99.90;;;;;;5076663;28;19915;-75
2022/05/28 14:45:25;;;;;;;;;;;13.70;99.90;;;;;;5076701;28;19908;-74
2022/05/28 14:47:53;;;;;;;;;;;13.70;99.90;;;;;;5075725;28;19962;-74